sensor_id;sensor_type;location;lat;lon;timestamp;P1;durP1;ratioP1;P2;durP2;ratioP2
44276;SDS011;29973;43.742;1.236;2023-05-29T00:01:13;15.18;;;6.35;;
44276;SDS011;29973;43.742;1.236;2023-05-29T00:03:43;16.40;;;5.88;;
44276;SDS011;29973;43.742;1.236;2023-05-29T00:06:09;14.63;;;6.85;;
44276;SDS011;29973;43.742;1.236;2023-05-29T00:08:35;13.32;;;6.22;;
44276;SDS011;29973;43.742;1.236;2023-05-29T00:11:01;13.07;;;6.10;;
44276;SDS011;29973;43.742;1.236;2023-05-29T00:13:27;13.82;;;6.10;;
44276;SDS011;29973;43.742;1.236;2023-05-29T00:15:52;12.20;;;6.25;;
44276;SDS011;29973;43.742;1.236;2023-05-29T00:18:18;14.95;;;6.32;;
44276;SDS011;29973;43.742;1.236;2023-05-29T00:20:44;17.52;;;6.43;;
44276;SDS011;29973;43.742;1.236;2023-05-29T00:23:09;9.10;;;5.97;;
44276;SDS011;29973;43.742;1.236;2023-05-29T00:25:35;12.45;;;5.63;;
44276;SDS011;29973;43.742;1.236;2023-05-29T00:28:01;13.60;;;6.03;;
44276;SDS011;29973;43.742;1.236;2023-05-29T00:30:26;16.77;;;6.80;;
44276;SDS011;29973;43.742;1.236;2023-05-29T00:32:52;15.25;;;5.95;;
44276;SDS011;29973;43.742;1.236;2023-05-29T00:35:19;17.20;;;5.97;;
44276;SDS011;29973;43.742;1.236;2023-05-29T00:37:44;14.35;;;6.90;;
44276;SDS011;29973;43.742;1.236;2023-05-29T00:40:10;15.57;;;6.85;;
44276;SDS011;29973;43.742;1.236;2023-05-29T00:42:36;14.80;;;6.38;;
44276;SDS011;29973;43.742;1.236;2023-05-29T00:45:02;17.70;;;6.43;;
44276;SDS011;29973;43.742;1.236;2023-05-29T00:47:28;8.85;;;6.00;;
44276;SDS011;29973;43.742;1.236;2023-05-29T00:49:55;16.02;;;6.57;;
44276;SDS011;29973;43.742;1.236;2023-05-29T00:52:21;15.57;;;6.32;;
44276;SDS011;29973;43.742;1.236;2023-05-29T00:54:48;11.80;;;6.22;;
44276;SDS011;29973;43.742;1.236;2023-05-29T00:57:14;12.13;;;6.53;;
44276;SDS011;29973;43.742;1.236;2023-05-29T00:59:41;12.23;;;6.30;;
44276;SDS011;29973;43.742;1.236;2023-05-29T01:02:09;14.50;;;6.47;;
44276;SDS011;29973;43.742;1.236;2023-05-29T01:04:35;16.70;;;6.20;;
44276;SDS011;29973;43.742;1.236;2023-05-29T01:07:01;12.40;;;5.45;;
44276;SDS011;29973;43.742;1.236;2023-05-29T01:09:28;16.63;;;6.70;;
44276;SDS011;29973;43.742;1.236;2023-05-29T01:20:17;15.25;;;6.45;;
44276;SDS011;29973;43.742;1.236;2023-05-29T01:28:44;9.10;;;5.68;;
44276;SDS011;29973;43.742;1.236;2023-05-29T01:31:14;13.52;;;5.80;;
44276;SDS011;29973;43.742;1.236;2023-05-29T01:33:56;15.20;;;6.57;;
44276;SDS011;29973;43.742;1.236;2023-05-29T01:36:23;11.63;;;5.57;;
44276;SDS011;29973;43.742;1.236;2023-05-29T01:38:50;15.48;;;7.30;;
44276;SDS011;29973;43.742;1.236;2023-05-29T01:41:17;19.63;;;6.53;;
44276;SDS011;29973;43.742;1.236;2023-05-29T01:43:44;15.43;;;6.28;;
44276;SDS011;29973;43.742;1.236;2023-05-29T01:46:14;13.95;;;6.13;;
44276;SDS011;29973;43.742;1.236;2023-05-29T01:48:41;9.73;;;6.22;;
44276;SDS011;29973;43.742;1.236;2023-05-29T01:51:07;19.13;;;6.57;;
44276;SDS011;29973;43.742;1.236;2023-05-29T01:53:36;14.80;;;5.85;;
44276;SDS011;29973;43.742;1.236;2023-05-29T01:56:03;15.63;;;5.80;;
44276;SDS011;29973;43.742;1.236;2023-05-29T01:58:33;11.07;;;5.40;;
44276;SDS011;29973;43.742;1.236;2023-05-29T02:01:01;16.48;;;6.40;;
44276;SDS011;29973;43.742;1.236;2023-05-29T02:03:29;11.93;;;6.38;;
44276;SDS011;29973;43.742;1.236;2023-05-29T02:05:55;10.25;;;6.68;;
44276;SDS011;29973;43.742;1.236;2023-05-29T02:08:24;11.82;;;6.13;;
44276;SDS011;29973;43.742;1.236;2023-05-29T02:10:50;13.32;;;6.53;;
44276;SDS011;29973;43.742;1.236;2023-05-29T02:13:16;14.48;;;6.30;;
44276;SDS011;29973;43.742;1.236;2023-05-29T02:15:42;16.65;;;6.30;;
44276;SDS011;29973;43.742;1.236;2023-05-29T02:18:10;15.38;;;6.25;;
44276;SDS011;29973;43.742;1.236;2023-05-29T02:20:38;15.85;;;6.65;;
44276;SDS011;29973;43.742;1.236;2023-05-29T02:23:04;11.75;;;6.35;;
44276;SDS011;29973;43.742;1.236;2023-05-29T02:25:30;15.85;;;6.57;;
44276;SDS011;29973;43.742;1.236;2023-05-29T02:27:55;19.30;;;6.57;;
44276;SDS011;29973;43.742;1.236;2023-05-29T02:30:21;17.33;;;6.93;;
44276;SDS011;29973;43.742;1.236;2023-05-29T02:32:47;13.57;;;6.72;;
44276;SDS011;29973;43.742;1.236;2023-05-29T02:35:12;9.25;;;6.25;;
44276;SDS011;29973;43.742;1.236;2023-05-29T02:37:40;18.88;;;6.72;;
44276;SDS011;29973;43.742;1.236;2023-05-29T02:40:06;16.08;;;6.85;;
44276;SDS011;29973;43.742;1.236;2023-05-29T02:42:33;18.65;;;7.13;;
44276;SDS011;29973;43.742;1.236;2023-05-29T02:44:59;15.90;;;7.13;;
44276;SDS011;29973;43.742;1.236;2023-05-29T02:47:25;15.27;;;7.00;;
44276;SDS011;29973;43.742;1.236;2023-05-29T02:49:51;12.32;;;6.63;;
44276;SDS011;29973;43.742;1.236;2023-05-29T02:52:16;14.63;;;6.55;;
44276;SDS011;29973;43.742;1.236;2023-05-29T02:54:42;10.75;;;6.22;;
44276;SDS011;29973;43.742;1.236;2023-05-29T02:57:08;13.68;;;7.15;;
44276;SDS011;29973;43.742;1.236;2023-05-29T02:59:34;14.20;;;7.55;;
44276;SDS011;29973;43.742;1.236;2023-05-29T03:02:00;12.40;;;6.88;;
44276;SDS011;29973;43.742;1.236;2023-05-29T03:04:26;15.82;;;7.20;;
44276;SDS011;29973;43.742;1.236;2023-05-29T03:06:52;15.70;;;8.43;;
44276;SDS011;29973;43.742;1.236;2023-05-29T03:09:19;14.82;;;7.43;;
44276;SDS011;29973;43.742;1.236;2023-05-29T03:11:45;10.57;;;6.63;;
44276;SDS011;29973;43.742;1.236;2023-05-29T03:14:12;18.65;;;7.28;;
44276;SDS011;29973;43.742;1.236;2023-05-29T03:16:38;13.50;;;6.93;;
44276;SDS011;29973;43.742;1.236;2023-05-29T03:19:05;13.90;;;6.50;;
44276;SDS011;29973;43.742;1.236;2023-05-29T03:21:32;18.33;;;7.65;;
44276;SDS011;29973;43.742;1.236;2023-05-29T03:23:58;12.35;;;6.72;;
44276;SDS011;29973;43.742;1.236;2023-05-29T03:26:25;14.77;;;6.43;;
44276;SDS011;29973;43.742;1.236;2023-05-29T03:28:51;15.93;;;6.82;;
44276;SDS011;29973;43.742;1.236;2023-05-29T03:31:17;10.48;;;6.85;;
44276;SDS011;29973;43.742;1.236;2023-05-29T03:33:42;14.90;;;6.82;;
44276;SDS011;29973;43.742;1.236;2023-05-29T03:36:08;15.68;;;6.72;;
44276;SDS011;29973;43.742;1.236;2023-05-29T03:38:34;12.40;;;6.90;;
44276;SDS011;29973;43.742;1.236;2023-05-29T03:41:00;12.73;;;6.65;;
44276;SDS011;29973;43.742;1.236;2023-05-29T03:43:25;15.07;;;7.18;;
44276;SDS011;29973;43.742;1.236;2023-05-29T03:45:51;15.55;;;6.78;;
44276;SDS011;29973;43.742;1.236;2023-05-29T03:48:17;16.08;;;7.25;;
44276;SDS011;29973;43.742;1.236;2023-05-29T03:50:42;15.32;;;6.35;;
44276;SDS011;29973;43.742;1.236;2023-05-29T03:53:09;13.68;;;6.53;;
44276;SDS011;29973;43.742;1.236;2023-05-29T03:55:35;16.90;;;6.63;;
44276;SDS011;29973;43.742;1.236;2023-05-29T03:58:00;16.42;;;6.70;;
44276;SDS011;29973;43.742;1.236;2023-05-29T04:00:26;17.02;;;8.15;;
44276;SDS011;29973;43.742;1.236;2023-05-29T04:02:52;20.60;;;7.20;;
44276;SDS011;29973;43.742;1.236;2023-05-29T04:05:18;12.65;;;6.63;;
44276;SDS011;29973;43.742;1.236;2023-05-29T04:07:43;15.73;;;7.32;;
44276;SDS011;29973;43.742;1.236;2023-05-29T04:10:09;13.80;;;7.45;;
44276;SDS011;29973;43.742;1.236;2023-05-29T04:12:35;16.42;;;7.05;;
44276;SDS011;29973;43.742;1.236;2023-05-29T04:15:01;16.05;;;7.60;;
44276;SDS011;29973;43.742;1.236;2023-05-29T04:17:26;23.10;;;8.23;;
44276;SDS011;29973;43.742;1.236;2023-05-29T04:19:52;18.73;;;7.82;;
44276;SDS011;29973;43.742;1.236;2023-05-29T04:22:18;16.25;;;7.47;;
44276;SDS011;29973;43.742;1.236;2023-05-29T04:24:44;20.83;;;7.80;;
44276;SDS011;29973;43.742;1.236;2023-05-29T04:27:11;14.60;;;7.00;;
44276;SDS011;29973;43.742;1.236;2023-05-29T04:29:41;19.23;;;7.28;;
44276;SDS011;29973;43.742;1.236;2023-05-29T04:32:10;12.35;;;7.15;;
44276;SDS011;29973;43.742;1.236;2023-05-29T04:34:39;11.30;;;7.20;;
44276;SDS011;29973;43.742;1.236;2023-05-29T04:37:05;16.83;;;8.20;;
44276;SDS011;29973;43.742;1.236;2023-05-29T04:39:31;15.85;;;6.95;;
44276;SDS011;29973;43.742;1.236;2023-05-29T04:41:57;15.43;;;7.40;;
44276;SDS011;29973;43.742;1.236;2023-05-29T04:44:26;14.68;;;7.00;;
44276;SDS011;29973;43.742;1.236;2023-05-29T04:46:52;16.00;;;6.72;;
44276;SDS011;29973;43.742;1.236;2023-05-29T04:49:18;13.02;;;6.72;;
44276;SDS011;29973;43.742;1.236;2023-05-29T04:51:45;13.65;;;6.78;;
44276;SDS011;29973;43.742;1.236;2023-05-29T04:54:11;16.17;;;6.85;;
44276;SDS011;29973;43.742;1.236;2023-05-29T04:56:37;15.20;;;7.40;;
44276;SDS011;29973;43.742;1.236;2023-05-29T04:59:05;16.52;;;7.40;;
44276;SDS011;29973;43.742;1.236;2023-05-29T05:01:34;12.82;;;7.00;;
44276;SDS011;29973;43.742;1.236;2023-05-29T05:04:00;11.82;;;6.63;;
44276;SDS011;29973;43.742;1.236;2023-05-29T05:06:26;15.20;;;7.25;;
44276;SDS011;29973;43.742;1.236;2023-05-29T05:08:53;12.95;;;6.60;;
44276;SDS011;29973;43.742;1.236;2023-05-29T05:11:19;10.25;;;6.85;;
44276;SDS011;29973;43.742;1.236;2023-05-29T05:13:46;18.90;;;8.15;;
44276;SDS011;29973;43.742;1.236;2023-05-29T05:16:12;18.27;;;7.15;;
44276;SDS011;29973;43.742;1.236;2023-05-29T05:18:38;16.27;;;7.35;;
44276;SDS011;29973;43.742;1.236;2023-05-29T05:21:04;15.18;;;6.70;;
44276;SDS011;29973;43.742;1.236;2023-05-29T05:23:30;17.48;;;7.00;;
44276;SDS011;29973;43.742;1.236;2023-05-29T05:25:57;18.35;;;6.90;;
44276;SDS011;29973;43.742;1.236;2023-05-29T05:28:22;18.02;;;6.72;;
44276;SDS011;29973;43.742;1.236;2023-05-29T05:30:48;16.52;;;6.75;;
44276;SDS011;29973;43.742;1.236;2023-05-29T05:33:14;16.90;;;6.93;;
44276;SDS011;29973;43.742;1.236;2023-05-29T05:35:40;14.50;;;7.55;;
44276;SDS011;29973;43.742;1.236;2023-05-29T05:38:05;11.75;;;6.45;;
44276;SDS011;29973;43.742;1.236;2023-05-29T05:40:31;12.60;;;6.68;;
44276;SDS011;29973;43.742;1.236;2023-05-29T05:42:57;17.42;;;7.72;;
44276;SDS011;29973;43.742;1.236;2023-05-29T05:45:23;52.38;;;8.75;;
44276;SDS011;29973;43.742;1.236;2023-05-29T05:47:49;46.40;;;6.93;;
44276;SDS011;29973;43.742;1.236;2023-05-29T05:50:14;21.88;;;7.15;;
44276;SDS011;29973;43.742;1.236;2023-05-29T05:52:40;13.75;;;6.70;;
44276;SDS011;29973;43.742;1.236;2023-05-29T05:55:06;13.48;;;7.15;;
44276;SDS011;29973;43.742;1.236;2023-05-29T05:57:32;20.17;;;8.55;;
44276;SDS011;29973;43.742;1.236;2023-05-29T05:59:59;15.82;;;8.02;;
44276;SDS011;29973;43.742;1.236;2023-05-29T06:02:25;18.83;;;8.73;;
44276;SDS011;29973;43.742;1.236;2023-05-29T06:04:51;14.90;;;8.07;;
44276;SDS011;29973;43.742;1.236;2023-05-29T06:07:17;19.77;;;7.70;;
44276;SDS011;29973;43.742;1.236;2023-05-29T06:09:43;15.43;;;7.75;;
44276;SDS011;29973;43.742;1.236;2023-05-29T06:12:09;14.88;;;7.53;;
44276;SDS011;29973;43.742;1.236;2023-05-29T06:14:38;17.10;;;7.65;;
44276;SDS011;29973;43.742;1.236;2023-05-29T06:17:03;16.05;;;7.90;;
44276;SDS011;29973;43.742;1.236;2023-05-29T06:19:29;21.42;;;7.55;;
44276;SDS011;29973;43.742;1.236;2023-05-29T06:21:55;20.58;;;8.10;;
44276;SDS011;29973;43.742;1.236;2023-05-29T06:24:21;16.35;;;8.15;;
44276;SDS011;29973;43.742;1.236;2023-05-29T06:26:52;20.25;;;7.63;;
44276;SDS011;29973;43.742;1.236;2023-05-29T06:29:18;14.95;;;7.50;;
44276;SDS011;29973;43.742;1.236;2023-05-29T06:31:44;10.20;;;7.03;;
44276;SDS011;29973;43.742;1.236;2023-05-29T06:34:09;15.55;;;7.20;;
44276;SDS011;29973;43.742;1.236;2023-05-29T06:36:35;19.15;;;6.65;;
44276;SDS011;29973;43.742;1.236;2023-05-29T06:39:01;16.45;;;6.93;;
44276;SDS011;29973;43.742;1.236;2023-05-29T06:41:26;13.63;;;6.55;;
44276;SDS011;29973;43.742;1.236;2023-05-29T06:43:52;14.77;;;7.28;;
44276;SDS011;29973;43.742;1.236;2023-05-29T06:46:18;13.60;;;6.68;;
44276;SDS011;29973;43.742;1.236;2023-05-29T06:48:43;19.05;;;7.15;;
44276;SDS011;29973;43.742;1.236;2023-05-29T06:51:09;15.77;;;6.95;;
44276;SDS011;29973;43.742;1.236;2023-05-29T06:53:40;14.95;;;6.47;;
44276;SDS011;29973;43.742;1.236;2023-05-29T06:56:06;27.65;;;6.18;;
44276;SDS011;29973;43.742;1.236;2023-05-29T06:58:32;17.85;;;6.85;;
44276;SDS011;29973;43.742;1.236;2023-05-29T07:00:58;15.23;;;6.93;;
44276;SDS011;29973;43.742;1.236;2023-05-29T07:03:25;16.42;;;7.07;;
44276;SDS011;29973;43.742;1.236;2023-05-29T07:05:51;25.00;;;6.35;;
44276;SDS011;29973;43.742;1.236;2023-05-29T07:08:17;21.60;;;7.10;;
44276;SDS011;29973;43.742;1.236;2023-05-29T07:10:43;17.08;;;6.22;;
44276;SDS011;29973;43.742;1.236;2023-05-29T07:13:09;16.45;;;6.35;;
44276;SDS011;29973;43.742;1.236;2023-05-29T07:15:36;12.02;;;6.45;;
44276;SDS011;29973;43.742;1.236;2023-05-29T07:18:02;19.17;;;6.13;;
44276;SDS011;29973;43.742;1.236;2023-05-29T07:20:28;20.48;;;6.25;;
44276;SDS011;29973;43.742;1.236;2023-05-29T07:22:53;19.73;;;6.57;;
44276;SDS011;29973;43.742;1.236;2023-05-29T07:25:19;12.98;;;6.40;;
44276;SDS011;29973;43.742;1.236;2023-05-29T07:27:45;16.60;;;6.05;;
44276;SDS011;29973;43.742;1.236;2023-05-29T07:30:11;12.05;;;5.07;;
44276;SDS011;29973;43.742;1.236;2023-05-29T07:32:37;14.70;;;5.38;;
44276;SDS011;29973;43.742;1.236;2023-05-29T07:35:03;18.75;;;5.30;;
44276;SDS011;29973;43.742;1.236;2023-05-29T07:37:29;10.52;;;5.07;;
44276;SDS011;29973;43.742;1.236;2023-05-29T07:39:55;11.18;;;5.32;;
44276;SDS011;29973;43.742;1.236;2023-05-29T07:42:21;15.38;;;6.07;;
44276;SDS011;29973;43.742;1.236;2023-05-29T07:44:46;18.80;;;5.53;;
44276;SDS011;29973;43.742;1.236;2023-05-29T07:47:13;13.45;;;5.20;;
44276;SDS011;29973;43.742;1.236;2023-05-29T07:49:38;14.45;;;5.80;;
44276;SDS011;29973;43.742;1.236;2023-05-29T07:52:04;11.73;;;5.35;;
44276;SDS011;29973;43.742;1.236;2023-05-29T07:54:31;15.23;;;6.10;;
44276;SDS011;29973;43.742;1.236;2023-05-29T07:56:58;12.27;;;5.63;;
44276;SDS011;29973;43.742;1.236;2023-05-29T07:59:24;13.05;;;5.78;;
44276;SDS011;29973;43.742;1.236;2023-05-29T08:01:50;9.65;;;5.57;;
44276;SDS011;29973;43.742;1.236;2023-05-29T08:04:16;18.40;;;5.80;;
44276;SDS011;29973;43.742;1.236;2023-05-29T08:06:42;14.35;;;5.90;;
44276;SDS011;29973;43.742;1.236;2023-05-29T08:09:08;12.82;;;5.53;;
44276;SDS011;29973;43.742;1.236;2023-05-29T08:11:35;13.85;;;4.95;;
44276;SDS011;29973;43.742;1.236;2023-05-29T08:14:02;11.45;;;4.70;;
44276;SDS011;29973;43.742;1.236;2023-05-29T08:16:28;9.65;;;4.35;;
44276;SDS011;29973;43.742;1.236;2023-05-29T08:18:54;11.02;;;4.82;;
44276;SDS011;29973;43.742;1.236;2023-05-29T08:21:20;11.00;;;4.25;;
44276;SDS011;29973;43.742;1.236;2023-05-29T08:23:46;9.57;;;4.30;;
44276;SDS011;29973;43.742;1.236;2023-05-29T08:26:12;7.65;;;4.50;;
44276;SDS011;29973;43.742;1.236;2023-05-29T08:28:38;9.77;;;4.25;;
44276;SDS011;29973;43.742;1.236;2023-05-29T08:31:04;13.98;;;4.40;;
44276;SDS011;29973;43.742;1.236;2023-05-29T08:33:30;10.00;;;4.43;;
44276;SDS011;29973;43.742;1.236;2023-05-29T08:35:57;9.75;;;4.00;;
44276;SDS011;29973;43.742;1.236;2023-05-29T08:38:24;9.38;;;4.22;;
44276;SDS011;29973;43.742;1.236;2023-05-29T08:40:51;11.35;;;4.45;;
44276;SDS011;29973;43.742;1.236;2023-05-29T08:45:45;10.18;;;4.30;;
44276;SDS011;29973;43.742;1.236;2023-05-29T08:50:44;11.43;;;4.50;;
44276;SDS011;29973;43.742;1.236;2023-05-29T08:53:16;10.82;;;4.40;;
44276;SDS011;29973;43.742;1.236;2023-05-29T08:55:44;12.50;;;4.88;;
44276;SDS011;29973;43.742;1.236;2023-05-29T08:58:12;9.40;;;3.78;;
44276;SDS011;29973;43.742;1.236;2023-05-29T09:00:39;9.68;;;4.38;;
44276;SDS011;29973;43.742;1.236;2023-05-29T09:03:06;15.73;;;4.40;;
44276;SDS011;29973;43.742;1.236;2023-05-29T09:05:32;14.35;;;4.30;;
44276;SDS011;29973;43.742;1.236;2023-05-29T09:07:58;8.40;;;4.05;;
44276;SDS011;29973;43.742;1.236;2023-05-29T09:10:25;10.63;;;3.88;;
44276;SDS011;29973;43.742;1.236;2023-05-29T09:12:51;13.75;;;4.60;;
44276;SDS011;29973;43.742;1.236;2023-05-29T09:15:21;12.60;;;4.47;;
44276;SDS011;29973;43.742;1.236;2023-05-29T09:20:22;10.80;;;4.60;;
44276;SDS011;29973;43.742;1.236;2023-05-29T09:22:52;9.98;;;3.85;;
44276;SDS011;29973;43.742;1.236;2023-05-29T09:25:20;9.10;;;4.43;;
44276;SDS011;29973;43.742;1.236;2023-05-29T09:27:50;8.90;;;4.30;;
44276;SDS011;29973;43.742;1.236;2023-05-29T09:30:30;11.68;;;4.60;;
44276;SDS011;29973;43.742;1.236;2023-05-29T09:32:56;8.07;;;4.15;;
44276;SDS011;29973;43.742;1.236;2023-05-29T09:35:23;9.02;;;4.13;;
44276;SDS011;29973;43.742;1.236;2023-05-29T09:37:49;7.30;;;4.03;;
44276;SDS011;29973;43.742;1.236;2023-05-29T09:40:15;12.45;;;4.13;;
44276;SDS011;29973;43.742;1.236;2023-05-29T09:42:41;12.65;;;4.18;;
44276;SDS011;29973;43.742;1.236;2023-05-29T09:45:09;8.57;;;3.70;;
44276;SDS011;29973;43.742;1.236;2023-05-29T09:47:35;12.13;;;4.40;;
44276;SDS011;29973;43.742;1.236;2023-05-29T09:50:01;14.90;;;4.30;;
44276;SDS011;29973;43.742;1.236;2023-05-29T09:52:28;5.65;;;3.78;;
44276;SDS011;29973;43.742;1.236;2023-05-29T09:54:55;11.10;;;4.28;;
44276;SDS011;29973;43.742;1.236;2023-05-29T09:57:22;9.88;;;3.97;;
44276;SDS011;29973;43.742;1.236;2023-05-29T09:59:49;11.82;;;4.13;;
44276;SDS011;29973;43.742;1.236;2023-05-29T10:02:17;11.50;;;4.57;;
44276;SDS011;29973;43.742;1.236;2023-05-29T10:04:43;11.40;;;3.88;;
44276;SDS011;29973;43.742;1.236;2023-05-29T10:09:53;10.90;;;3.75;;
44276;SDS011;29973;43.742;1.236;2023-05-29T10:12:25;8.23;;;3.72;;
44276;SDS011;29973;43.742;1.236;2023-05-29T10:14:54;9.45;;;3.70;;
44276;SDS011;29973;43.742;1.236;2023-05-29T10:17:34;12.70;;;4.70;;
44276;SDS011;29973;43.742;1.236;2023-05-29T10:20:01;9.50;;;3.90;;
44276;SDS011;29973;43.742;1.236;2023-05-29T10:22:29;8.68;;;4.03;;
44276;SDS011;29973;43.742;1.236;2023-05-29T10:24:57;9.70;;;4.35;;
44276;SDS011;29973;43.742;1.236;2023-05-29T10:27:24;10.25;;;4.65;;
44276;SDS011;29973;43.742;1.236;2023-05-29T10:30:53;7.07;;;4.05;;
44276;SDS011;29973;43.742;1.236;2023-05-29T10:32:56;9.32;;;5.22;;
44276;SDS011;29973;43.742;1.236;2023-05-29T10:35:47;15.07;;;6.30;;
44276;SDS011;29973;43.742;1.236;2023-05-29T10:38:20;12.23;;;3.65;;
44276;SDS011;29973;43.742;1.236;2023-05-29T10:40:46;11.63;;;4.40;;
44276;SDS011;29973;43.742;1.236;2023-05-29T10:43:30;18.27;;;9.80;;
44276;SDS011;29973;43.742;1.236;2023-05-29T10:46:00;13.45;;;6.13;;
44276;SDS011;29973;43.742;1.236;2023-05-29T10:50:55;10.88;;;4.63;;
44276;SDS011;29973;43.742;1.236;2023-05-29T10:53:24;15.23;;;4.10;;
44276;SDS011;29973;43.742;1.236;2023-05-29T10:55:52;13.95;;;4.43;;
44276;SDS011;29973;43.742;1.236;2023-05-29T10:58:18;10.90;;;4.40;;
44276;SDS011;29973;43.742;1.236;2023-05-29T11:00:45;10.23;;;4.70;;
44276;SDS011;29973;43.742;1.236;2023-05-29T11:03:14;12.75;;;3.95;;
44276;SDS011;29973;43.742;1.236;2023-05-29T11:06:19;8.88;;;4.13;;
44276;SDS011;29973;43.742;1.236;2023-05-29T11:08:46;12.23;;;4.35;;
44276;SDS011;29973;43.742;1.236;2023-05-29T11:11:32;11.65;;;4.25;;
44276;SDS011;29973;43.742;1.236;2023-05-29T11:14:02;8.68;;;4.05;;
44276;SDS011;29973;43.742;1.236;2023-05-29T11:18:55;8.55;;;4.25;;
44276;SDS011;29973;43.742;1.236;2023-05-29T11:21:23;12.52;;;4.40;;
44276;SDS011;29973;43.742;1.236;2023-05-29T11:24:12;10.30;;;4.35;;
44276;SDS011;29973;43.742;1.236;2023-05-29T11:26:44;16.83;;;4.20;;
44276;SDS011;29973;43.742;1.236;2023-05-29T11:29:10;11.95;;;4.30;;
44276;SDS011;29973;43.742;1.236;2023-05-29T11:31:38;8.27;;;3.97;;
44276;SDS011;29973;43.742;1.236;2023-05-29T11:34:05;11.98;;;4.97;;
44276;SDS011;29973;43.742;1.236;2023-05-29T11:36:37;9.52;;;4.35;;
44276;SDS011;29973;43.742;1.236;2023-05-29T11:39:03;12.38;;;4.03;;
44276;SDS011;29973;43.742;1.236;2023-05-29T11:41:29;13.82;;;4.38;;
44276;SDS011;29973;43.742;1.236;2023-05-29T11:46:24;13.45;;;4.40;;
44276;SDS011;29973;43.742;1.236;2023-05-29T11:48:51;13.43;;;4.18;;
44276;SDS011;29973;43.742;1.236;2023-05-29T11:51:17;15.40;;;4.47;;
44276;SDS011;29973;43.742;1.236;2023-05-29T11:53:43;14.90;;;4.68;;
44276;SDS011;29973;43.742;1.236;2023-05-29T11:56:11;14.45;;;4.70;;
44276;SDS011;29973;43.742;1.236;2023-05-29T11:58:40;11.57;;;3.97;;
44276;SDS011;29973;43.742;1.236;2023-05-29T12:01:07;12.25;;;4.07;;
44276;SDS011;29973;43.742;1.236;2023-05-29T12:03:40;16.00;;;3.92;;
44276;SDS011;29973;43.742;1.236;2023-05-29T12:06:07;12.80;;;4.45;;
44276;SDS011;29973;43.742;1.236;2023-05-29T12:08:35;12.95;;;4.68;;
44276;SDS011;29973;43.742;1.236;2023-05-29T12:11:02;12.20;;;4.85;;
44276;SDS011;29973;43.742;1.236;2023-05-29T12:13:28;10.13;;;4.82;;
44276;SDS011;29973;43.742;1.236;2023-05-29T12:15:54;12.50;;;4.35;;
44276;SDS011;29973;43.742;1.236;2023-05-29T12:18:23;10.73;;;3.92;;
44276;SDS011;29973;43.742;1.236;2023-05-29T12:20:50;19.38;;;4.85;;
44276;SDS011;29973;43.742;1.236;2023-05-29T12:23:17;14.23;;;4.38;;
44276;SDS011;29973;43.742;1.236;2023-05-29T12:25:46;13.27;;;4.22;;
44276;SDS011;29973;43.742;1.236;2023-05-29T12:28:15;12.65;;;3.47;;
44276;SDS011;29973;43.742;1.236;2023-05-29T12:30:45;14.40;;;4.30;;
44276;SDS011;29973;43.742;1.236;2023-05-29T12:33:27;13.82;;;3.83;;
44276;SDS011;29973;43.742;1.236;2023-05-29T12:35:54;15.10;;;4.45;;
44276;SDS011;29973;43.742;1.236;2023-05-29T12:38:26;15.43;;;4.28;;
44276;SDS011;29973;43.742;1.236;2023-05-29T12:40:52;12.25;;;3.88;;
44276;SDS011;29973;43.742;1.236;2023-05-29T12:43:18;13.65;;;4.50;;
44276;SDS011;29973;43.742;1.236;2023-05-29T12:45:44;9.82;;;3.72;;
44276;SDS011;29973;43.742;1.236;2023-05-29T12:48:10;16.73;;;4.07;;
44276;SDS011;29973;43.742;1.236;2023-05-29T12:50:40;13.80;;;4.18;;
44276;SDS011;29973;43.742;1.236;2023-05-29T12:53:09;10.63;;;4.32;;
44276;SDS011;29973;43.742;1.236;2023-05-29T12:55:41;9.93;;;3.97;;
44276;SDS011;29973;43.742;1.236;2023-05-29T12:58:13;8.07;;;3.28;;
44276;SDS011;29973;43.742;1.236;2023-05-29T13:00:41;14.73;;;3.85;;
44276;SDS011;29973;43.742;1.236;2023-05-29T13:03:08;14.35;;;3.97;;
44276;SDS011;29973;43.742;1.236;2023-05-29T13:05:35;12.75;;;4.40;;
44276;SDS011;29973;43.742;1.236;2023-05-29T13:08:01;11.80;;;4.20;;
44276;SDS011;29973;43.742;1.236;2023-05-29T13:10:30;9.93;;;4.15;;
44276;SDS011;29973;43.742;1.236;2023-05-29T13:12:56;11.55;;;4.00;;
44276;SDS011;29973;43.742;1.236;2023-05-29T13:15:24;12.25;;;3.80;;
44276;SDS011;29973;43.742;1.236;2023-05-29T13:17:51;8.73;;;3.83;;
44276;SDS011;29973;43.742;1.236;2023-05-29T13:20:18;15.85;;;4.15;;
44276;SDS011;29973;43.742;1.236;2023-05-29T13:22:45;11.98;;;3.80;;
44276;SDS011;29973;43.742;1.236;2023-05-29T13:25:12;15.82;;;4.03;;
44276;SDS011;29973;43.742;1.236;2023-05-29T13:27:39;13.45;;;4.13;;
44276;SDS011;29973;43.742;1.236;2023-05-29T13:30:07;16.17;;;3.90;;
44276;SDS011;29973;43.742;1.236;2023-05-29T13:32:35;12.52;;;3.88;;
44276;SDS011;29973;43.742;1.236;2023-05-29T13:35:01;20.10;;;4.18;;
44276;SDS011;29973;43.742;1.236;2023-05-29T13:37:28;14.18;;;3.90;;
44276;SDS011;29973;43.742;1.236;2023-05-29T13:39:53;10.02;;;3.67;;
44276;SDS011;29973;43.742;1.236;2023-05-29T13:42:19;11.55;;;4.47;;
44276;SDS011;29973;43.742;1.236;2023-05-29T13:44:46;18.73;;;4.70;;
44276;SDS011;29973;43.742;1.236;2023-05-29T13:47:12;14.70;;;4.72;;
44276;SDS011;29973;43.742;1.236;2023-05-29T13:49:38;13.73;;;3.97;;
44276;SDS011;29973;43.742;1.236;2023-05-29T13:52:04;13.63;;;4.03;;
44276;SDS011;29973;43.742;1.236;2023-05-29T13:54:30;16.27;;;4.30;;
44276;SDS011;29973;43.742;1.236;2023-05-29T13:57:00;15.80;;;4.30;;
44276;SDS011;29973;43.742;1.236;2023-05-29T13:59:27;18.13;;;4.15;;
44276;SDS011;29973;43.742;1.236;2023-05-29T14:01:52;17.13;;;3.85;;
44276;SDS011;29973;43.742;1.236;2023-05-29T14:04:18;11.52;;;3.58;;
44276;SDS011;29973;43.742;1.236;2023-05-29T14:06:44;18.95;;;3.72;;
44276;SDS011;29973;43.742;1.236;2023-05-29T14:09:13;13.65;;;3.92;;
44276;SDS011;29973;43.742;1.236;2023-05-29T14:11:39;11.75;;;3.92;;
44276;SDS011;29973;43.742;1.236;2023-05-29T14:14:05;10.82;;;3.60;;
44276;SDS011;29973;43.742;1.236;2023-05-29T14:16:31;12.52;;;3.63;;
44276;SDS011;29973;43.742;1.236;2023-05-29T14:18:58;11.82;;;3.72;;
44276;SDS011;29973;43.742;1.236;2023-05-29T14:21:24;9.20;;;3.67;;
44276;SDS011;29973;43.742;1.236;2023-05-29T14:23:50;13.98;;;3.67;;
44276;SDS011;29973;43.742;1.236;2023-05-29T14:26:16;15.43;;;3.42;;
44276;SDS011;29973;43.742;1.236;2023-05-29T14:28:41;9.30;;;3.13;;
44276;SDS011;29973;43.742;1.236;2023-05-29T14:31:07;15.52;;;3.53;;
44276;SDS011;29973;43.742;1.236;2023-05-29T14:33:33;14.18;;;3.95;;
44276;SDS011;29973;43.742;1.236;2023-05-29T14:35:59;10.00;;;3.40;;
44276;SDS011;29973;43.742;1.236;2023-05-29T14:38:24;9.50;;;3.63;;
44276;SDS011;29973;43.742;1.236;2023-05-29T14:40:50;16.73;;;4.05;;
44276;SDS011;29973;43.742;1.236;2023-05-29T14:43:17;13.32;;;4.40;;
44276;SDS011;29973;43.742;1.236;2023-05-29T14:45:43;14.80;;;4.25;;
44276;SDS011;29973;43.742;1.236;2023-05-29T14:48:08;13.82;;;3.67;;
44276;SDS011;29973;43.742;1.236;2023-05-29T14:50:35;11.55;;;3.63;;
44276;SDS011;29973;43.742;1.236;2023-05-29T14:53:01;11.73;;;3.75;;
44276;SDS011;29973;43.742;1.236;2023-05-29T14:55:27;10.45;;;3.67;;
44276;SDS011;29973;43.742;1.236;2023-05-29T14:57:53;11.10;;;3.45;;
44276;SDS011;29973;43.742;1.236;2023-05-29T15:00:19;11.23;;;3.42;;
44276;SDS011;29973;43.742;1.236;2023-05-29T15:02:45;11.52;;;3.65;;
44276;SDS011;29973;43.742;1.236;2023-05-29T15:05:11;12.85;;;3.47;;
44276;SDS011;29973;43.742;1.236;2023-05-29T15:07:36;12.60;;;3.63;;